• Join FlightAware (Why Join?)
  • Login
  • US Flag 
07:05PM EDT


 

Airport Tracker/Info


-or-


 

Live Flight TrackerFlight Track Log ✈ N342ER ✈ 16-Jul-2013 ✈ KDCU - KAUO

Flight Track Log - Related Links

Times and Time Zones

All times are in EDT time to prevent confusion due to time zone crossing. See the N342ER flight status page for this flight to view local times or setup timezone preferences in your user account.

Time Position Orientation Groundspeed Altitude Reporting Facility
EDT Latitude Longitude Course Direction KTS MPH feet Rate Location/Type
05:47PM 34.4439 -86.9094 144° Southeast 154 177 8,000  Level Memphis Center
05:48PM 34.4078 -86.8781 144° Southeast 154 177 9,400 1,200 Climbing Memphis Center
05:49PM 34.3736 -86.8500 146° Southeast 152 175 10,600 1,380 Climbing Atlanta Center
05:50PM 34.3369 -86.8186 145° Southeast 159 183 12,300 1,500 Climbing Atlanta Center
05:51PM 34.3019 -86.7897 146° Southeast 159 183 13,700 1,260 Climbing Atlanta Center
05:52PM 34.2653 -86.7583 145° Southeast 159 183 14,800 600 Climbing Atlanta Center
05:53PM 34.2200 -86.7217 146° Southeast 171 197 15,000 60 Climbing Atlanta Center
05:54PM 34.1708 -86.6825 147° Southeast 197 227 15,000  Level Atlanta Center
05:55PM 34.1217 -86.6408 145° Southeast 212 244 15,000  Level Atlanta Center
05:56PM 34.0703 -86.6017 148° Southeast 212 244 15,000  Level Atlanta Center
05:57PM 34.0189 -86.5575 145° Southeast 218 251 15,000  Level Atlanta Center
05:58PM 33.9675 -86.5161 146° Southeast 223 257 15,000  Level Atlanta Center
05:59PM 33.9164 -86.4719 144° Southeast 223 257 15,000  Level Atlanta Center
06:00PM 33.8669 -86.4331 147° Southeast 223 257 15,000  Level Atlanta Center
06:01PM 33.8156 -86.3917 146° Southeast 228 262 15,000  Level Atlanta Center
06:02PM 33.7642 -86.3503 146° Southeast 228 262 15,000  Level Atlanta Center
06:03PM 33.7108 -86.3089 147° Southeast 228 262 15,000  Level Atlanta Center
06:04PM 33.6614 -86.2650 144° Southeast 228 262 15,000  Level Atlanta Center
06:05PM 33.6122 -86.2189 142° Southeast 228 262 15,000  Level Atlanta Center
06:06PM 33.5608 -86.1653 139° Southeast 228 262 15,000  Level Atlanta Center
06:07PM 33.5158 -86.1169 138° Southeast 223 257 15,000  Level Atlanta Center
06:08PM 33.4644 -86.0758 146° Southeast 223 257 15,000 -300 Level Atlanta Center
06:09PM 33.4108 -86.0322 146° Southeast 223 257 14,400 -600 Descending Atlanta Center
06:10PM 33.3550 -85.9936 150° Southeast 230 265 13,900 -600 Descending Atlanta Center
06:11PM 33.2994 -85.9525 148° Southeast 230 265 13,200 -1,140 Descending Atlanta Center
06:12PM 33.2436 -85.9092 147° Southeast 236 272 11,700 -1,680 Descending Atlanta Center
06:13PM 33.1878 -85.8683 149° Southeast 236 272 9,900 -1,800 Descending Atlanta Center
06:14PM 33.1342 -85.8275 147° Southeast 236 272 8,100 -1,620 Descending Atlanta Center
06:15PM 33.0889 -85.7942 148° Southeast 225 259 6,700 -1,200 Descending Atlanta Center
06:16PM 33.0372 -85.7536 147° Southeast 225 259 5,700 -900 Descending Atlanta Center
06:17PM 32.9875 -85.7156 147° Southeast 225 259 5,000 -360 Descending Atlanta Center
06:18PM 32.9381 -85.6797 149° Southeast 219 252 5,000 -60 Level Atlanta Center
06:19PM 32.8906 -85.6442 148° Southeast 206 237 4,900 -420 Descending Atlanta Center
06:20PM 32.8386 -85.6064 149° Southeast 206 237 4,200 -600 Descending Atlanta Center
06:21PM 32.7869 -85.5658 147° Southeast 206 237 3,700 -540 Descending Atlanta Center
06:22PM 32.7353 -85.5278 148° Southeast 206 237 3,200 -540 Descending Atlanta Center
06:27PM 32.6877 -85.4782 148° Southeast  Level FlightAware Approximate
06:34PM 32.6151 -85.4340 320° Northwest  Level Estimated
06:35PM 32.6151 -85.4340 320° Northwest  Level Estimated
06:36PM 32.6151 -85.4340 320° Northwest  Level Estimated